Time;durP1;ratioP1;P1;durP2;ratioP2;P2;SDS_P1;SDS_P2;PMS_P1;PMS_P2;Temp;Humidity;BMP_temperature;BMP_pressure;BME280_temperature;BME280_humidity;BME280_pressure;Samples;Min_cycle;Max_cycle;Signal;HPM_P1;HPM_P2
2022/04/04 00:01:12;;;;;;;;;23.75;22.25;;;;;5.23;55.44;101699.50;5008738;28;45295;-82
2022/04/04 00:03:38;;;;;;;;;22.25;21.00;;;;;5.28;55.62;101719.88;5010038;28;45506;-82
2022/04/04 00:06:03;;;;;;;;;19.00;18.67;;;;;5.42;55.64;101747.84;4990754;28;45324;-82
2022/04/04 00:08:29;;;;;;;;;24.00;23.75;;;;;5.43;55.48;101743.53;5010500;28;46516;-83
2022/04/04 00:10:55;;;;;;;;;25.25;24.75;;;;;5.28;54.99;101724.19;5009717;28;45174;-82
2022/04/04 00:13:20;;;;;;;;;25.50;24.00;;;;;5.20;55.36;101707.09;5009796;28;45266;-83
2022/04/04 00:15:45;;;;;;;;;27.33;26.67;;;;;4.88;55.32;101657.09;4991556;28;45193;-82
2022/04/04 00:18:11;;;;;;;;;26.00;24.25;;;;;5.49;55.59;101770.03;5009861;28;45740;-82
2022/04/04 00:20:37;;;;;;;;;20.75;20.50;;;;;5.42;55.80;101755.66;5010651;28;45063;-82
2022/04/04 00:23:03;;;;;;;;;25.50;22.25;;;;;5.39;55.72;101758.03;5009187;28;45472;-81
2022/04/04 00:25:29;;;;;;;;;20.75;19.50;;;;;5.12;55.91;101712.69;5009860;28;45031;-82
2022/04/04 00:27:54;;;;;;;;;24.50;22.25;;;;;5.12;56.27;101720.50;5009675;28;45892;-82
2022/04/04 00:30:19;;;;;;;;;22.00;20.00;;;;;5.11;55.93;101729.09;5008971;28;45532;-82
2022/04/04 00:32:45;;;;;;;;;25.50;21.50;;;;;5.03;56.00;101725.03;5006993;28;45574;-82
2022/04/04 00:35:10;;;;;;;;;22.33;21.00;;;;;4.87;56.13;101696.94;5009871;28;45210;-82
2022/04/04 00:37:39;;;;;;;;;25.67;22.00;;;;;5.13;56.51;101747.47;5030612;28;47529;-82
2022/04/04 00:40:06;;;;;;;;;20.00;17.75;;;;;4.78;56.53;101696.31;5009206;28;45164;-83
2022/04/04 00:42:32;;;;;;;;;23.25;21.50;;;;;4.64;56.67;101679.66;5009413;28;45262;-82
2022/04/04 00:44:57;;;;;;;;;20.25;20.00;;;;;4.89;56.69;101730.94;5009098;28;45033;-82
2022/04/04 00:47:23;;;;;;;;;23.75;22.25;;;;;4.85;57.01;101724.59;5008734;28;45221;-83
2022/04/04 00:49:49;;;;;;;;;22.25;20.75;;;;;4.70;56.82;101697.44;4993733;28;45316;-82
2022/04/04 00:52:14;;;;;;;;;24.75;23.75;;;;;4.80;57.09;101712.03;5009399;28;45318;-82
2022/04/04 00:54:40;;;;;;;;;19.33;19.33;;;;;4.63;56.90;101688.28;5009572;28;45074;-82
2022/04/04 00:57:05;;;;;;;;;21.25;19.25;;;;;4.75;57.05;101697.78;5008929;28;45212;-82
2022/04/04 00:59:31;;;;;;;;;23.25;20.75;;;;;4.76;57.05;101703.09;5009024;28;45157;-82
2022/04/04 01:01:57;;;;;;;;;22.75;21.25;;;;;4.63;57.37;101680.47;4990908;28;45234;-82
2022/04/04 01:04:22;;;;;;;;;19.75;19.75;;;;;4.82;57.45;101721.75;5008242;28;45233;-83
2022/04/04 01:06:47;;;;;;;;;19.00;19.00;;;;;4.69;57.60;101711.25;5008508;28;45366;-82
2022/04/04 01:09:14;;;;;;;;;24.75;22.00;;;;;4.71;57.55;101693.13;5009074;28;44999;-82
2022/04/04 01:12:11;;;;;;;;;24.00;22.75;;;;;4.98;57.52;101739.44;5009203;28;45124;-82
2022/04/04 01:14:40;;;;;;;;;22.25;20.00;;;;;4.63;57.43;101690.88;4991311;28;45288;-82
2022/04/04 01:17:07;;;;;;;;;21.75;20.25;;;;;5.01;57.42;101741.34;5008864;28;45392;-81
2022/04/04 01:19:33;;;;;;;;;22.50;21.00;;;;;4.84;57.25;101708.88;4991005;28;45490;-82
2022/04/04 01:22:00;;;;;;;;;25.50;20.75;;;;;5.00;57.46;101735.22;5008753;28;44970;-82
2022/04/04 01:24:26;;;;;;;;;19.25;17.75;;;;;5.06;57.36;101740.88;5008283;28;44970;-81
2022/04/04 01:26:53;;;;;;;;;22.25;20.25;;;;;5.07;57.21;101745.28;5008826;28;45394;-82
2022/04/04 01:29:20;;;;;;;;;18.75;16.75;;;;;4.64;57.06;101660.53;5005022;28;45324;-82
2022/04/04 01:31:46;;;;;;;;;20.25;18.75;;;;;4.80;57.08;101686.00;5008952;28;45382;-82
2022/04/04 01:34:11;;;;;;;;;23.75;22.25;;;;;4.56;57.13;101643.44;5009190;28;45033;-82
2022/04/04 01:36:37;;;;;;;;;21.00;20.00;;;;;4.62;57.45;101650.00;5008918;28;45895;-82
2022/04/04 01:39:03;;;;;;;;;25.00;23.33;;;;;4.83;57.30;101699.25;5008618;28;45278;-82
2022/04/04 01:41:28;;;;;;;;;24.25;23.50;;;;;4.62;57.47;101665.63;5000935;28;45143;-82
2022/04/04 01:43:54;;;;;;;;;22.75;22.00;;;;;4.68;57.46;101677.28;5006484;28;45338;-82
2022/04/04 01:46:26;;;;;;;;;14.75;14.00;;;;;4.72;57.61;101689.72;5008085;28;46217;-82
2022/04/04 01:48:53;;;;;;;;;24.00;20.00;;;;;4.55;57.68;101658.16;4990701;28;45063;-82
2022/04/04 01:51:19;;;;;;;;;23.50;22.25;;;;;4.86;57.73;101715.97;4979749;28;46318;-82
2022/04/04 01:53:45;;;;;;;;;22.50;19.75;;;;;4.57;57.88;101680.00;5008251;28;45247;-82
2022/04/04 01:56:11;;;;;;;;;21.75;20.25;;;;;4.44;57.91;101666.91;5007480;28;45377;-82
2022/04/04 01:58:37;;;;;;;;;20.25;19.50;;;;;4.23;58.16;101645.38;5008277;28;45511;-82
2022/04/04 02:01:12;;;;;;;;;21.00;19.00;;;;;4.35;58.34;101679.22;5008607;28;45089;-82
2022/04/04 02:03:38;;;;;;;;;21.50;20.00;;;;;4.44;58.30;101692.03;5008593;28;45219;-82
2022/04/04 02:06:04;;;;;;;;;20.75;19.25;;;;;4.53;58.49;101705.69;4990137;28;47479;-82
2022/04/04 02:08:31;;;;;;;;;20.50;18.75;;;;;4.36;58.51;101688.84;5008388;28;45443;-83
2022/04/04 02:10:57;;;;;;;;;22.25;19.00;;;;;4.09;58.32;101641.78;5007883;28;45168;-82
2022/04/04 02:13:25;;;;;;;;;18.50;18.50;;;;;4.42;58.39;101693.59;5008022;28;44912;-82
2022/04/04 02:15:52;;;;;;;;;25.75;22.50;;;;;4.06;58.32;101633.72;4990484;28;47098;-82
2022/04/04 02:18:18;;;;;;;;;22.00;20.25;;;;;4.26;58.76;101673.31;5007874;28;45238;-82
2022/04/04 02:20:43;;;;;;;;;19.25;18.25;;;;;4.13;58.59;101659.38;5008063;28;45147;-82
2022/04/04 02:23:09;;;;;;;;;21.50;19.50;;;;;4.23;58.61;101676.59;5007523;28;44991;-82
2022/04/04 02:25:34;;;;;;;;;17.75;17.75;;;;;4.05;59.18;101644.94;5000248;28;46764;-82
2022/04/04 02:27:59;;;;;;;;;16.75;15.25;;;;;4.01;58.88;101627.28;5007426;28;45342;-82
2022/04/04 02:30:25;;;;;;;;;19.00;18.00;;;;;4.02;58.74;101647.28;5029836;28;45099;-82
2022/04/04 02:32:50;;;;;;;;;18.00;18.00;;;;;4.12;58.90;101675.78;5011622;28;45184;-83
2022/04/04 02:35:16;;;;;;;;;19.50;18.25;;;;;3.91;58.87;101637.78;5010839;28;45160;-82
2022/04/04 02:37:43;;;;;;;;;24.25;20.25;;;;;4.11;59.16;101673.09;5011763;28;45003;-82
2022/04/04 02:40:09;;;;;;;;;18.75;18.75;;;;;4.26;58.99;101699.34;5011242;28;45341;-82
2022/04/04 02:42:34;;;;;;;;;21.00;20.75;;;;;4.05;58.51;101667.44;5011392;28;45183;-83
2022/04/04 02:45:00;;;;;;;;;20.00;18.50;;;;;4.21;59.61;101704.22;5011279;28;46167;-82
2022/04/04 02:47:25;;;;;;;;;22.25;19.50;;;;;3.70;59.40;101607.56;5012176;28;45220;-82
2022/04/04 02:49:51;;;;;;;;;22.25;21.25;;;;;3.99;59.25;101662.69;5010874;28;45247;-81
2022/04/04 02:52:16;;;;;;;;;22.25;20.50;;;;;3.35;59.34;101551.22;5010886;28;45342;-81
2022/04/04 02:54:42;;;;;;;;;22.00;21.00;;;;;3.87;59.83;101653.94;5010400;28;45431;-81
2022/04/04 02:57:07;;;;;;;;;23.00;20.00;;;;;3.97;59.55;101659.03;5010947;28;45401;-82
2022/04/04 02:59:32;;;;;;;;;19.00;17.67;;;;;4.00;59.38;101680.09;5011768;28;45019;-82
2022/04/04 03:01:58;;;;;;;;;25.33;22.00;;;;;3.86;59.57;101672.94;5010906;28;45176;-81
2022/04/04 03:04:23;;;;;;;;;23.25;20.75;;;;;3.74;59.73;101654.69;5010299;28;46047;-82
2022/04/04 03:06:49;;;;;;;;;22.75;19.75;;;;;3.78;59.89;101661.03;5026118;28;45118;-82
2022/04/04 03:09:14;;;;;;;;;22.75;20.50;;;;;3.81;59.66;101675.19;4992729;28;45179;-82
2022/04/04 03:11:40;;;;;;;;;20.25;18.75;;;;;3.66;60.00;101634.13;5010738;28;46426;-82
2022/04/04 03:14:05;;;;;;;;;19.33;18.67;;;;;3.87;60.05;101679.94;5011011;28;45152;-82
2022/04/04 03:16:31;;;;;;;;;21.50;17.75;;;;;3.82;60.20;101684.78;5011526;28;45370;-82
2022/04/04 03:18:58;;;;;;;;;17.75;17.00;;;;;3.81;60.20;101669.97;5010611;28;45191;-82
2022/04/04 03:21:24;;;;;;;;;20.75;18.75;;;;;3.79;60.42;101679.38;5008220;28;45126;-83
2022/04/04 03:23:50;;;;;;;;;18.00;18.00;;;;;3.41;60.43;101601.06;4999345;28;47176;-82
2022/04/04 03:26:15;;;;;;;;;19.75;18.25;;;;;3.67;60.51;101648.91;5009866;28;45072;-83
2022/04/04 03:28:41;;;;;;;;;19.75;16.50;;;;;3.72;60.44;101660.56;4998548;28;45249;-83
2022/04/04 03:31:07;;;;;;;;;21.50;20.25;;;;;3.41;60.60;101619.25;5010568;28;45004;-82
2022/04/04 03:33:34;;;;;;;;;17.75;17.25;;;;;3.45;60.86;101621.28;5010081;28;45865;-82
2022/04/04 03:36:00;;;;;;;;;20.75;19.50;;;;;3.71;60.29;101666.56;4992873;28;45419;-82
2022/04/04 03:38:27;;;;;;;;;22.00;18.75;;;;;3.54;60.50;101631.47;5010965;28;45318;-81
2022/04/04 03:40:53;;;;;;;;;20.00;17.50;;;;;3.23;60.81;101571.94;5009869;28;45084;-82
2022/04/04 03:43:18;;;;;;;;;19.25;17.25;;;;;3.45;60.63;101612.56;5010511;28;45103;-82
2022/04/04 03:45:44;;;;;;;;;17.75;16.50;;;;;3.46;60.80;101617.00;5010157;28;45345;-82
2022/04/04 03:48:10;;;;;;;;;22.00;18.00;;;;;3.65;60.61;101646.22;5010007;28;45214;-82
2022/04/04 03:50:36;;;;;;;;;21.00;19.50;;;;;3.63;60.53;101646.06;5016134;28;45302;-82
2022/04/04 03:53:02;;;;;;;;;17.25;14.25;;;;;3.53;60.84;101625.38;5010357;28;45465;-82
2022/04/04 03:55:38;;;;;;;;;21.25;20.50;;;;;3.28;60.89;101585.28;5009666;28;45248;-83
2022/04/04 03:58:03;;;;;;;;;21.00;20.50;;;;;3.19;60.94;101567.31;5010186;28;45441;-82
2022/04/04 04:00:29;;;;;;;;;20.75;19.75;;;;;3.17;60.77;101571.50;5010522;28;45376;-90
2022/04/04 04:02:56;;;;;;;;;21.25;19.25;;;;;3.12;60.69;101558.94;4988354;28;47236;-82
2022/04/04 04:05:21;;;;;;;;;20.00;18.50;;;;;3.43;60.68;101615.06;4988951;28;45486;-82
2022/04/04 04:07:47;;;;;;;;;26.50;22.25;;;;;3.32;60.91;101593.44;4990474;28;45220;-82
2022/04/04 04:10:12;;;;;;;;;27.75;24.50;;;;;2.97;61.07;101533.59;4989764;28;45022;-82
2022/04/04 04:12:40;;;;;;;;;21.75;20.50;;;;;3.48;60.91;101626.69;4990490;28;45341;-82
2022/04/04 04:15:07;;;;;;;;;19.75;18.25;;;;;3.31;61.03;101595.94;4988881;28;45445;-82
2022/04/04 04:17:33;;;;;;;;;22.25;21.00;;;;;3.03;60.90;101548.72;4989838;28;45152;-82
2022/04/04 04:22:42;;;;;;;;;21.25;20.25;;;;;3.36;61.00;101592.00;4989949;28;45681;-83
2022/04/04 04:25:08;;;;;;;;;18.00;17.25;;;;;3.52;61.33;101627.84;4987908;28;45351;-83
2022/04/04 04:27:35;;;;;;;;;21.75;20.00;;;;;3.16;61.12;101559.28;4988625;28;45440;-83
2022/04/04 04:30:01;;;;;;;;;26.00;23.75;;;;;3.25;61.28;101564.25;4990280;28;45515;-82
2022/04/04 04:32:27;;;;;;;;;21.00;19.75;;;;;3.31;61.35;101559.56;4989908;28;46079;-83
2022/04/04 04:34:52;;;;;;;;;25.00;24.25;;;;;3.34;60.98;101563.28;4990166;28;45082;-83
2022/04/04 04:37:19;;;;;;;;;20.50;20.00;;;;;3.64;61.07;101607.97;4988518;28;45133;-82
2022/04/04 04:39:45;;;;;;;;;22.00;19.00;;;;;3.40;61.03;101575.88;4989123;28;45546;-82
2022/04/04 04:42:10;;;;;;;;;21.00;17.00;;;;;3.29;60.95;101546.44;4989224;28;45364;-82
2022/04/04 04:44:36;;;;;;;;;20.25;20.25;;;;;3.35;61.13;101548.63;4989596;28;45145;-82
2022/04/04 04:47:02;;;;;;;;;21.25;20.25;;;;;3.40;60.69;101559.34;4987603;28;45097;-83
2022/04/04 04:49:28;;;;;;;;;20.00;20.00;;;;;3.55;60.55;101568.31;4988821;28;45253;-82
2022/04/04 04:51:54;;;;;;;;;22.00;18.00;;;;;3.58;60.47;101566.84;4988270;28;45282;-82
2022/04/04 04:54:20;;;;;;;;;22.75;20.00;;;;;3.63;60.55;101562.00;4970060;28;45212;-83
2022/04/04 04:56:46;;;;;;;;;19.00;19.00;;;;;3.51;60.42;101537.69;4969972;28;45099;-82
2022/04/04 04:59:11;;;;;;;;;23.50;21.25;;;;;3.70;60.36;101573.78;4977898;28;45319;-83
2022/04/04 05:01:36;;;;;;;;;21.00;17.33;;;;;3.41;60.37;101525.69;4987838;28;47150;-83
2022/04/04 05:04:02;;;;;;;;;17.50;16.00;;;;;3.45;60.17;101540.75;4988757;28;44983;-82
2022/04/04 05:06:27;;;;;;;;;17.50;13.75;;;;;3.61;60.13;101566.19;4989931;28;45092;-82
2022/04/04 05:08:55;;;;;;;;;19.67;19.00;;;;;3.48;60.31;101537.44;4989550;28;45214;-83
2022/04/04 05:11:21;;;;;;;;;22.75;20.75;;;;;3.53;60.23;101543.91;4988481;28;46259;-82
2022/04/04 05:13:47;;;;;;;;;13.25;13.00;;;;;3.65;59.98;101559.53;4988112;28;45310;-82
2022/04/04 05:16:14;;;;;;;;;19.75;18.25;;;;;3.61;59.96;101546.28;4986939;28;45184;-83
2022/04/04 05:18:42;;;;;;;;;22.25;18.00;;;;;3.87;60.13;101599.31;4988716;28;45097;-82
2022/04/04 05:21:09;;;;;;;;;17.75;17.75;;;;;3.84;59.67;101591.28;4989078;28;45763;-81
2022/04/04 05:23:35;;;;;;;;;20.00;19.00;;;;;3.66;59.96;101566.53;4989515;28;45428;-82
2022/04/04 05:26:00;;;;;;;;;23.00;22.00;;;;;3.61;60.18;101555.78;4988079;28;46205;-83
2022/04/04 05:28:25;;;;;;;;;22.75;21.25;;;;;3.50;60.23;101542.00;4987259;28;45322;-82
2022/04/04 05:30:51;;;;;;;;;26.00;21.00;;;;;3.48;60.43;101543.53;4988545;28;45325;-82
2022/04/04 05:33:16;;;;;;;;;28.00;22.00;;;;;3.49;60.44;101555.75;4988367;28;45362;-83
2022/04/04 05:35:41;;;;;;;;;25.67;24.33;;;;;3.35;60.69;101539.13;5004010;28;45364;-82
2022/04/04 05:38:07;;;;;;;;;28.33;22.67;;;;;3.39;60.49;101544.53;4988796;28;45536;-82
2022/04/04 05:40:32;;;;;;;;;23.75;20.75;;;;;3.35;60.42;101531.34;4986294;28;46054;-83
2022/04/04 05:42:58;;;;;;;;;21.50;18.50;;;;;3.58;60.33;101569.44;4999230;28;45331;-82
2022/04/04 05:45:24;;;;;;;;;22.75;22.25;;;;;3.56;60.44;101558.03;4989121;28;45223;-83
2022/04/04 05:47:49;;;;;;;;;28.75;26.50;;;;;3.42;60.35;101530.09;4996618;28;45100;-82
2022/04/04 05:50:14;;;;;;;;;18.75;17.75;;;;;3.59;60.21;101563.44;4998512;28;47477;-83
2022/04/04 05:52:42;;;;;;;;;22.00;21.50;;;;;3.58;60.22;101555.53;4983059;28;45121;-82
2022/04/04 05:55:08;;;;;;;;;26.50;25.50;;;;;3.42;60.21;101517.09;4984474;28;45113;-82
2022/04/04 05:57:36;;;;;;;;;26.50;25.00;;;;;3.91;60.27;101598.78;4985057;28;45297;-83
2022/04/04 06:00:03;;;;;;;;;26.00;25.25;;;;;3.91;60.18;101593.56;4982109;28;45676;-83
2022/04/04 06:02:29;;;;;;;;;25.75;24.75;;;;;3.76;60.38;101562.13;4996454;28;45190;-85
2022/04/04 06:04:55;;;;;;;;;30.00;25.75;;;;;3.68;60.28;101536.34;5006348;28;45449;-85
2022/04/04 06:07:21;;;;;;;;;22.75;20.50;;;;;3.76;60.09;101558.63;4992196;28;45272;-84
2022/04/04 06:09:47;;;;;;;;;25.50;22.00;;;;;4.06;60.34;101597.31;5005128;28;45589;-84
2022/04/04 06:12:12;;;;;;;;;25.75;24.50;;;;;3.65;60.01;101513.63;5009176;28;44952;-84
2022/04/04 06:14:38;;;;;;;;;27.25;24.00;;;;;3.84;59.84;101544.47;5005894;28;45461;-83
2022/04/04 06:17:05;;;;;;;;;26.75;25.75;;;;;4.15;59.83;101584.09;5008381;28;45014;-83
2022/04/04 06:19:34;;;;;;;;;26.75;25.25;;;;;4.11;59.84;101572.53;5008316;28;45160;-83
2022/04/04 06:22:00;;;;;;;;;30.75;27.50;;;;;4.12;59.44;101566.53;5007750;28;45153;-83
2022/04/04 06:24:25;;;;;;;;;25.00;24.00;;;;;4.03;59.51;101550.25;5004827;28;45335;-82
2022/04/04 06:26:51;;;;;;;;;24.75;22.00;;;;;4.10;59.30;101554.22;5002540;28;45389;-83
2022/04/04 06:29:16;;;;;;;;;31.33;24.67;;;;;4.20;59.05;101569.72;4998848;28;45632;-81
2022/04/04 06:31:41;;;;;;;;;20.00;20.00;;;;;4.12;59.06;101552.63;4999969;28;45746;-82
2022/04/04 06:34:10;;;;;;;;;21.75;20.25;;;;;4.07;59.10;101544.47;4998657;28;45003;-82
2022/04/04 06:36:38;;;;;;;;;26.50;25.00;;;;;3.98;59.33;101523.00;5004281;28;45363;-82
2022/04/04 06:39:03;;;;;;;;;25.00;21.50;;;;;4.37;58.79;101578.72;5001880;28;46338;-82
2022/04/04 06:41:30;;;;;;;;;26.75;23.00;;;;;4.38;59.27;101577.94;4999349;28;45119;-82
2022/04/04 06:43:55;;;;;;;;;23.75;22.25;;;;;4.27;58.98;101558.03;4997955;28;45528;-82
2022/04/04 06:46:22;;;;;;;;;24.75;22.75;;;;;4.18;59.16;101531.34;4998234;28;45615;-82
2022/04/04 06:48:50;;;;;;;;;19.25;18.75;;;;;4.23;59.03;101522.19;5004162;28;45917;-84
2022/04/04 06:51:16;;;;;;;;;20.25;18.50;;;;;4.61;58.98;101577.91;5014865;28;45442;-87
2022/04/04 06:53:48;;;;;;;;;25.50;23.50;;;;;4.19;58.84;101484.66;4981461;28;45995;-89
2022/04/04 06:56:16;;;;;;;;;17.25;17.25;;;;;3.43;58.42;101359.50;4999662;28;44871;-81
2022/04/04 06:58:42;;;;;;;;;20.00;19.00;;;;;4.57;58.79;101539.41;4997768;28;45717;-82
2022/04/04 07:01:07;;;;;;;;;23.33;22.67;;;;;4.61;59.21;101533.63;4988491;28;45074;-82
2022/04/04 07:03:32;;;;;;;;;17.33;17.33;;;;;4.50;58.53;101507.66;5002018;28;45253;-82
2022/04/04 07:05:58;;;;;;;;;19.25;17.50;;;;;4.88;58.41;101560.75;4988209;28;45198;-81
2022/04/04 07:08:29;;;;;;;;;27.50;23.50;;;;;4.69;58.25;101523.78;5000425;28;46175;-82
2022/04/04 07:10:54;;;;;;;;;19.25;17.00;;;;;4.45;58.11;101455.28;5026848;28;45441;-81
2022/04/04 07:13:21;;;;;;;;;15.25;15.25;;;;;4.57;57.68;101468.22;4998365;28;45241;-82
2022/04/04 07:15:46;;;;;;;;;13.75;13.75;;;;;4.75;57.74;101492.06;4981533;28;45250;-82
2022/04/04 07:18:12;;;;;;;;;20.00;16.67;;;;;5.20;57.68;101562.06;4997375;28;45955;-79
2022/04/04 07:20:38;;;;;;;;;18.25;16.25;;;;;5.25;57.65;101554.56;4999962;28;45260;-79
2022/04/04 07:23:05;;;;;;;;;15.25;13.75;;;;;5.13;57.53;101516.44;4990215;28;45476;-81
2022/04/04 07:25:30;;;;;;;;;15.75;14.75;;;;;5.33;57.27;101542.97;4996780;28;45937;-81
2022/04/04 07:27:55;;;;;;;;;10.50;9.75;;;;;5.16;57.12;101500.09;5002082;28;45469;-81
2022/04/04 07:30:23;;;;;;;;;14.25;13.25;;;;;5.10;56.79;101469.34;5007033;28;45030;-81
2022/04/04 07:32:50;;;;;;;;;10.00;10.00;;;;;5.34;56.02;101513.50;4992343;28;45133;-79
2022/04/04 07:35:18;;;;;;;;;11.00;11.00;;;;;5.39;56.14;101501.69;5008165;28;45472;-82
2022/04/04 07:37:46;;;;;;;;;9.25;7.75;;;;;5.57;55.40;101521.16;5007353;28;46156;-81
2022/04/04 07:40:14;;;;;;;;;9.25;9.00;;;;;5.28;55.03;101474.91;5004216;28;45082;-81
2022/04/04 07:42:42;;;;;;;;;6.75;6.00;;;;;5.58;54.61;101501.22;5010859;28;45272;-81
2022/04/04 07:45:09;;;;;;;;;6.00;6.00;;;;;5.81;54.69;101526.19;4991002;28;45386;-80
2022/04/04 07:47:35;;;;;;;;;9.00;8.25;;;;;5.79;54.34;101520.88;5003937;28;45836;-82
2022/04/04 07:50:01;;;;;;;;;9.75;8.50;;;;;5.58;54.39;101465.59;5003785;28;45133;-81
2022/04/04 07:52:27;;;;;;;;;6.50;6.00;;;;;6.00;54.37;101521.41;5009438;28;45500;-81
2022/04/04 07:54:54;;;;;;;;;8.25;7.00;;;;;6.08;54.55;101520.22;5014575;28;45109;-81
2022/04/04 07:57:20;;;;;;;;;7.00;7.00;;;;;6.11;54.04;101506.47;5011835;28;47181;-81
2022/04/04 07:59:46;;;;;;;;;6.00;6.00;;;;;6.13;53.81;101510.06;5019842;28;45471;-82
2022/04/04 08:02:12;;;;;;;;;6.25;5.00;;;;;6.19;53.64;101486.97;5001514;28;45234;-82
2022/04/04 08:04:38;;;;;;;;;8.50;8.50;;;;;6.40;53.51;101496.19;5010117;28;45116;-82
2022/04/04 08:07:04;;;;;;;;;8.50;7.00;;;;;5.90;53.47;101404.19;4990652;28;47724;-81
2022/04/04 08:09:30;;;;;;;;;7.25;7.00;;;;;6.14;52.92;101421.44;5006707;28;45440;-82
2022/04/04 08:11:56;;;;;;;;;6.00;5.25;;;;;6.46;52.79;101470.44;4982778;28;45111;-82
2022/04/04 08:14:23;;;;;;;;;6.00;5.75;;;;;6.30;52.82;101420.66;5002765;28;45007;-81
2022/04/04 08:16:48;;;;;;;;;7.75;7.75;;;;;6.14;52.43;101369.22;5002606;28;45644;-81
2022/04/04 08:19:15;;;;;;;;;3.00;3.00;;;;;6.93;52.67;101502.91;4971979;28;45438;-81
2022/04/04 08:21:42;;;;;;;;;10.25;9.00;;;;;6.96;52.33;101488.34;4989863;28;45185;-81
2022/04/04 08:24:08;;;;;;;;;7.00;7.00;;;;;6.79;51.95;101449.81;4992441;28;45077;-81
2022/04/04 08:26:34;;;;;;;;;9.75;9.75;;;;;6.98;51.70;101470.13;5005746;28;46209;-80
2022/04/04 08:29:00;;;;;;;;;8.00;8.00;;;;;6.66;51.40;101423.78;5008652;28;45588;-82
2022/04/04 08:31:25;;;;;;;;;11.50;10.50;;;;;6.35;51.33;101368.75;5007557;28;45272;-82
2022/04/04 08:33:51;;;;;;;;;8.75;7.50;;;;;6.70;51.68;101407.47;5007879;28;45320;-81
2022/04/04 08:36:16;;;;;;;;;7.25;7.25;;;;;6.70;51.22;101392.72;4990762;28;47578;-82
2022/04/04 08:38:42;;;;;;;;;7.00;6.25;;;;;6.86;51.25;101407.59;5009025;28;45287;-82
2022/04/04 08:41:09;;;;;;;;;7.25;6.25;;;;;7.18;51.12;101450.41;4989858;28;45292;-82
2022/04/04 08:43:40;;;;;;;;;5.75;5.50;;;;;7.05;50.88;101408.69;5005555;28;45464;-81
2022/04/04 08:46:07;;;;;;;;;7.00;6.50;;;;;7.11;51.01;101425.63;5015337;28;47926;-81
2022/04/04 08:48:35;;;;;;;;;6.25;6.00;;;;;7.27;50.61;101443.13;5008543;28;45352;-82
2022/04/04 08:51:01;;;;;;;;;6.00;5.75;;;;;7.33;50.02;101437.34;5009580;28;45200;-82
2022/04/04 08:53:28;;;;;;;;;6.50;6.50;;;;;7.16;50.27;101394.53;5008971;28;45353;-82
2022/04/04 08:55:57;;;;;;;;;6.25;6.25;;;;;7.25;49.99;101389.84;5003073;28;46418;-83
2022/04/04 08:58:23;;;;;;;;;5.00;5.00;;;;;7.06;50.45;101359.13;5007793;28;45376;-82
2022/04/04 09:00:49;;;;;;;;;6.25;6.25;;;;;7.39;50.08;101385.38;4990272;28;45211;-82
2022/04/04 09:03:22;;;;;;;;;7.00;6.00;;;;;7.71;49.95;101432.63;5005619;28;45270;-81
2022/04/04 09:05:52;;;;;;;;;6.75;6.00;;;;;7.75;49.52;101418.91;4989330;28;47701;-81
2022/04/04 09:08:22;;;;;;;;;6.25;6.25;;;;;7.87;49.45;101428.25;4999557;28;45325;-81
2022/04/04 09:10:51;;;;;;;;;7.00;5.75;;;;;7.93;49.12;101439.03;4988923;28;45140;-81
2022/04/04 09:13:18;;;;;;;;;7.75;7.00;;;;;7.83;48.90;101400.09;5002145;28;45378;-81
2022/04/04 09:15:52;;;;;;;;;3.25;3.25;;;;;8.07;48.78;101443.34;4997919;28;45595;-82
2022/04/04 09:18:19;;;;;;;;;6.00;6.00;;;;;7.57;48.29;101344.59;5002032;28;45198;-82
2022/04/04 09:20:53;;;;;;;;;4.00;4.00;;;;;7.78;48.15;101367.53;4992935;28;45368;-82
2022/04/04 09:23:19;;;;;;;;;3.50;3.50;;;;;7.72;48.34;101350.69;5004499;28;45260;-82
2022/04/04 09:25:45;;;;;;;;;6.00;5.50;;;;;7.78;48.08;101343.97;4970530;28;47680;-81
2022/04/04 09:28:19;;;;;;;;;3.75;3.75;;;;;8.14;47.19;101387.91;5001406;28;45126;-82
2022/04/04 09:31:05;;;;;;;;;4.75;3.75;;;;;7.90;47.14;101329.88;5004765;28;45187;-82
2022/04/04 09:33:35;;;;;;;;;5.25;5.25;;;;;8.41;46.46;101400.72;4990079;28;45588;-81
2022/04/04 09:36:01;;;;;;;;;5.50;3.75;;;;;8.57;46.68;101426.94;4994072;28;45700;-81
2022/04/04 09:38:26;;;;;;;;;6.75;5.00;;;;;8.37;46.13;101378.69;5006487;28;45446;-81
2022/04/04 09:40:52;;;;;;;;;5.00;4.50;;;;;8.51;45.98;101403.00;5008209;28;45005;-82
2022/04/04 09:43:17;;;;;;;;;7.00;7.00;;;;;8.39;45.75;101377.06;4987261;28;45276;-81
2022/04/04 09:45:44;;;;;;;;;5.50;4.00;;;;;8.65;45.63;101404.63;5007851;28;45582;-81
2022/04/04 09:48:11;;;;;;;;;4.00;3.00;;;;;8.32;45.16;101345.19;5006680;28;45259;-82
2022/04/04 09:50:49;;;;;;;;;4.00;4.00;;;;;8.66;45.12;101409.03;4987733;28;45765;-82
2022/04/04 09:53:29;;;;;;;;;2.25;2.00;;;;;8.61;45.28;101384.31;5006726;28;45096;-82
2022/04/04 09:56:00;;;;;;;;;7.00;6.00;;;;;8.59;44.86;101362.41;5005364;28;46588;-81
2022/04/04 09:58:27;;;;;;;;;7.50;7.25;;;;;8.85;44.96;101389.06;4988952;28;45769;-81
2022/04/04 10:00:54;;;;;;;;;6.00;6.00;;;;;8.68;44.53;101338.41;5007643;28;45389;-81
2022/04/04 10:03:20;;;;;;;;;4.25;4.25;;;;;8.33;44.45;101258.84;4996573;28;45776;-81
2022/04/04 10:06:04;;;;;;;;;2.00;2.00;;;;;8.96;43.63;101343.31;5000668;28;45479;-82
2022/04/04 10:08:31;;;;;;;;;5.00;5.00;;;;;9.15;43.70;101346.03;5000319;28;45430;-82
2022/04/04 10:10:56;;;;;;;;;4.00;4.00;;;;;9.50;42.69;101376.63;4999702;28;45556;-81
2022/04/04 10:13:23;;;;;;;;;2.50;2.50;;;;;9.62;41.94;101378.06;4975905;28;46154;-81
2022/04/04 10:15:51;;;;;;;;;3.00;3.00;;;;;9.62;41.68;101355.34;4986970;28;47533;-82
2022/04/04 10:18:16;;;;;;;;;3.00;2.75;;;;;9.44;42.00;101315.09;5002165;28;45556;-82
2022/04/04 10:20:42;;;;;;;;;4.75;4.00;;;;;9.55;42.07;101348.88;5003586;28;45364;-81
2022/04/04 10:23:12;;;;;;;;;5.00;5.00;;;;;9.71;42.58;101360.13;4995281;28;45380;-82
2022/04/04 10:25:38;;;;;;;;;4.00;4.00;;;;;9.43;42.45;101311.56;4998874;28;45782;-81
2022/04/04 10:28:04;;;;;;;;;3.00;3.00;;;;;9.43;42.39;101308.03;5006456;28;45694;-81
2022/04/04 10:30:41;;;;;;;;;4.50;4.00;;;;;9.74;42.70;101337.53;5000227;28;45356;-82
2022/04/04 10:33:23;;;;;;;;;3.25;3.25;;;;;9.53;42.28;101298.06;5003301;28;45516;-81
2022/04/04 10:36:22;;;;;;;;;3.75;3.75;;;;;9.52;42.61;101266.50;4995093;28;45649;-81
2022/04/04 10:38:54;;;;;;;;;6.50;4.75;;;;;9.52;42.73;101235.91;4973447;28;45853;-81
2022/04/04 10:41:27;;;;;;;;;5.00;4.00;;;;;9.88;41.92;101251.56;5012248;28;45101;-81
2022/04/04 10:43:54;;;;;;;;;3.50;2.75;;;;;10.63;41.22;101317.06;4986163;28;45061;-81
2022/04/04 10:46:22;;;;;;;;;3.00;3.00;;;;;10.85;40.78;101286.50;4997865;28;46036;-81
2022/04/04 10:48:58;;;;;;;;;4.00;4.00;;;;;11.16;40.01;101293.03;5006741;28;45626;-81
2022/04/04 10:51:49;;;;;;;;;5.25;4.00;;;;;11.54;40.02;101306.84;5004446;28;45245;-81
2022/04/04 10:54:22;;;;;;;;;3.00;2.75;;;;;11.61;39.16;101287.81;5005280;28;45362;-82
2022/04/04 10:56:47;;;;;;;;;4.50;3.50;;;;;11.72;38.71;101270.69;5005944;28;45919;-80
2022/04/04 10:59:16;;;;;;;;;5.25;4.25;;;;;11.86;38.28;101287.03;5009256;28;45436;-81
2022/04/04 11:01:43;;;;;;;;;3.50;3.50;;;;;11.72;38.30;101285.59;5013185;28;45125;-80
2022/04/04 11:04:26;;;;;;;;;3.00;2.00;;;;;11.66;38.35;101283.63;5030353;28;45045;-81
2022/04/04 11:09:53;;;;;;;;;4.00;4.00;;;;;11.68;38.75;101278.44;5002541;28;45363;-82
2022/04/04 11:12:22;;;;;;;;;4.00;4.00;;;;;11.74;38.55;101245.31;4998885;28;45232;-82
2022/04/04 11:14:57;;;;;;;;;4.25;3.50;;;;;12.16;38.49;101268.84;5003164;28;45328;-81
2022/04/04 11:17:29;;;;;;;;;4.25;4.25;;;;;12.12;38.14;101220.44;4991045;28;47446;-82
2022/04/04 11:20:00;;;;;;;;;3.25;3.25;;;;;12.34;37.41;101263.34;4986957;28;45186;-83
2022/04/04 11:22:31;;;;;;;;;6.50;5.50;;;;;12.20;37.41;101249.69;5007190;28;45428;-84
2022/04/04 11:25:06;;;;;;;;;4.00;3.75;;;;;11.86;37.04;101190.50;4991423;28;45374;-83
2022/04/04 11:27:34;;;;;;;;;5.00;5.00;;;;;12.13;37.38;101216.06;5010945;28;45474;-83